sensor_id;sensor_type;location;lat;lon;timestamp;temperature;humidity
66708;DHT22;53622;0.000;0.000;2023-04-24T00:01:47;22.50;57.10
66708;DHT22;53622;0.000;0.000;2023-04-24T00:04:17;22.50;57.10
66708;DHT22;53622;0.000;0.000;2023-04-24T00:06:46;22.50;57.00
66708;DHT22;53622;0.000;0.000;2023-04-24T00:09:18;22.50;57.10
66708;DHT22;53622;0.000;0.000;2023-04-24T00:11:48;22.50;57.00
66708;DHT22;53622;0.000;0.000;2023-04-24T00:14:17;22.50;57.00
66708;DHT22;53622;0.000;0.000;2023-04-24T00:16:46;22.50;57.00
66708;DHT22;53622;0.000;0.000;2023-04-24T00:19:16;22.50;57.00
66708;DHT22;53622;0.000;0.000;2023-04-24T00:21:49;22.50;57.00
66708;DHT22;53622;0.000;0.000;2023-04-24T00:24:20;22.50;57.00
66708;DHT22;53622;0.000;0.000;2023-04-24T00:26:49;22.50;56.90
66708;DHT22;53622;0.000;0.000;2023-04-24T00:29:19;22.40;56.90
66708;DHT22;53622;0.000;0.000;2023-04-24T00:31:48;22.50;57.00
66708;DHT22;53622;0.000;0.000;2023-04-24T00:34:17;22.50;57.00
66708;DHT22;53622;0.000;0.000;2023-04-24T00:36:47;22.40;56.80
66708;DHT22;53622;0.000;0.000;2023-04-24T00:39:21;22.40;56.80
66708;DHT22;53622;0.000;0.000;2023-04-24T00:41:51;22.40;56.90
66708;DHT22;53622;0.000;0.000;2023-04-24T00:44:20;22.40;56.90
66708;DHT22;53622;0.000;0.000;2023-04-24T00:46:50;22.40;56.90
66708;DHT22;53622;0.000;0.000;2023-04-24T00:49:22;22.40;56.80
66708;DHT22;53622;0.000;0.000;2023-04-24T00:51:52;22.40;56.80
66708;DHT22;53622;0.000;0.000;2023-04-24T00:54:23;22.40;56.80
66708;DHT22;53622;0.000;0.000;2023-04-24T00:56:52;22.40;56.80
66708;DHT22;53622;0.000;0.000;2023-04-24T00:59:21;22.40;56.80
66708;DHT22;53622;0.000;0.000;2023-04-24T01:01:51;22.40;56.80
66708;DHT22;53622;0.000;0.000;2023-04-24T01:04:21;22.40;56.80
66708;DHT22;53622;0.000;0.000;2023-04-24T01:06:50;22.30;56.80
66708;DHT22;53622;0.000;0.000;2023-04-24T01:09:23;22.30;56.80
66708;DHT22;53622;0.000;0.000;2023-04-24T01:11:53;22.30;56.90
66708;DHT22;53622;0.000;0.000;2023-04-24T01:14:23;22.30;56.90
66708;DHT22;53622;0.000;0.000;2023-04-24T01:16:52;22.30;56.90
66708;DHT22;53622;0.000;0.000;2023-04-24T01:19:21;22.30;56.90
66708;DHT22;53622;0.000;0.000;2023-04-24T01:21:51;22.20;56.90
66708;DHT22;53622;0.000;0.000;2023-04-24T01:24:23;22.30;56.90
66708;DHT22;53622;0.000;0.000;2023-04-24T01:26:53;22.30;56.80
66708;DHT22;53622;0.000;0.000;2023-04-24T01:29:23;22.30;56.80
66708;DHT22;53622;0.000;0.000;2023-04-24T01:31:53;22.30;56.70
66708;DHT22;53622;0.000;0.000;2023-04-24T01:34:22;22.30;56.60
66708;DHT22;53622;0.000;0.000;2023-04-24T01:36:52;22.30;56.60
66708;DHT22;53622;0.000;0.000;2023-04-24T01:39:22;22.30;56.50
66708;DHT22;53622;0.000;0.000;2023-04-24T01:41:54;22.30;56.50
66708;DHT22;53622;0.000;0.000;2023-04-24T01:44:23;22.30;56.50
66708;DHT22;53622;0.000;0.000;2023-04-24T01:46:54;22.30;56.50
66708;DHT22;53622;0.000;0.000;2023-04-24T01:49:24;22.30;56.50
66708;DHT22;53622;0.000;0.000;2023-04-24T01:51:53;22.30;56.50
66708;DHT22;53622;0.000;0.000;2023-04-24T01:54:24;22.30;56.50
66708;DHT22;53622;0.000;0.000;2023-04-24T01:56:56;22.30;56.40
66708;DHT22;53622;0.000;0.000;2023-04-24T01:59:25;22.30;56.40
66708;DHT22;53622;0.000;0.000;2023-04-24T02:01:56;22.30;56.40
66708;DHT22;53622;0.000;0.000;2023-04-24T02:04:26;22.30;56.40
66708;DHT22;53622;0.000;0.000;2023-04-24T02:06:55;22.30;56.40
66708;DHT22;53622;0.000;0.000;2023-04-24T02:09:26;22.30;56.40
66708;DHT22;53622;0.000;0.000;2023-04-24T02:11:55;22.30;56.40
66708;DHT22;53622;0.000;0.000;2023-04-24T02:14:25;22.20;56.30
66708;DHT22;53622;0.000;0.000;2023-04-24T02:16:54;22.30;56.30
66708;DHT22;53622;0.000;0.000;2023-04-24T02:19:24;22.20;56.30
66708;DHT22;53622;0.000;0.000;2023-04-24T02:21:53;22.20;56.20
66708;DHT22;53622;0.000;0.000;2023-04-24T02:24:22;22.20;56.90
66708;DHT22;53622;0.000;0.000;2023-04-24T02:26:53;22.20;56.20
66708;DHT22;53622;0.000;0.000;2023-04-24T02:29:22;22.20;56.20
66708;DHT22;53622;0.000;0.000;2023-04-24T02:31:52;22.20;56.20
66708;DHT22;53622;0.000;0.000;2023-04-24T02:34:21;22.20;56.20
66708;DHT22;53622;0.000;0.000;2023-04-24T02:36:51;22.20;56.20
66708;DHT22;53622;0.000;0.000;2023-04-24T02:39:21;22.20;56.40
66708;DHT22;53622;0.000;0.000;2023-04-24T02:41:54;22.20;56.20
66708;DHT22;53622;0.000;0.000;2023-04-24T02:44:23;22.20;56.20
66708;DHT22;53622;0.000;0.000;2023-04-24T02:46:53;22.20;56.20
66708;DHT22;53622;0.000;0.000;2023-04-24T02:49:23;22.20;56.20
66708;DHT22;53622;0.000;0.000;2023-04-24T02:51:52;22.20;56.10
66708;DHT22;53622;0.000;0.000;2023-04-24T02:54:21;22.20;56.10
66708;DHT22;53622;0.000;0.000;2023-04-24T02:56:51;22.20;56.10
66708;DHT22;53622;0.000;0.000;2023-04-24T02:59:21;22.20;56.10
66708;DHT22;53622;0.000;0.000;2023-04-24T03:01:51;22.20;56.00
66708;DHT22;53622;0.000;0.000;2023-04-24T03:04:20;22.20;56.00
66708;DHT22;53622;0.000;0.000;2023-04-24T03:06:50;22.20;56.00
66708;DHT22;53622;0.000;0.000;2023-04-24T03:09:22;22.10;56.00
66708;DHT22;53622;0.000;0.000;2023-04-24T03:11:51;22.10;56.00
66708;DHT22;53622;0.000;0.000;2023-04-24T03:14:22;22.10;56.00
66708;DHT22;53622;0.000;0.000;2023-04-24T03:16:52;22.10;56.00
66708;DHT22;53622;0.000;0.000;2023-04-24T03:19:21;22.10;56.00
66708;DHT22;53622;0.000;0.000;2023-04-24T03:22:03;22.10;56.00
66708;DHT22;53622;0.000;0.000;2023-04-24T03:24:34;22.10;55.90
66708;DHT22;53622;0.000;0.000;2023-04-24T03:27:04;22.10;56.00
66708;DHT22;53622;0.000;0.000;2023-04-24T03:29:51;22.10;56.00
66708;DHT22;53622;0.000;0.000;2023-04-24T03:32:30;22.10;55.90
66708;DHT22;53622;0.000;0.000;2023-04-24T03:35:00;22.10;55.90
66708;DHT22;53622;0.000;0.000;2023-04-24T03:37:30;22.10;55.90
66708;DHT22;53622;0.000;0.000;2023-04-24T03:40:14;22.10;55.90
66708;DHT22;53622;0.000;0.000;2023-04-24T03:42:43;22.10;55.90
66708;DHT22;53622;0.000;0.000;2023-04-24T03:45:14;22.10;55.90
66708;DHT22;53622;0.000;0.000;2023-04-24T03:47:47;22.00;55.80
66708;DHT22;53622;0.000;0.000;2023-04-24T03:50:17;22.00;55.80
66708;DHT22;53622;0.000;0.000;2023-04-24T03:52:48;22.00;55.80
66708;DHT22;53622;0.000;0.000;2023-04-24T03:55:29;22.00;56.40
66708;DHT22;53622;0.000;0.000;2023-04-24T03:57:58;22.00;55.80
66708;DHT22;53622;0.000;0.000;2023-04-24T04:00:30;22.00;55.80
66708;DHT22;53622;0.000;0.000;2023-04-24T04:03:22;22.00;55.80
66708;DHT22;53622;0.000;0.000;2023-04-24T04:05:52;22.00;55.70
66708;DHT22;53622;0.000;0.000;2023-04-24T04:08:22;22.10;55.80
66708;DHT22;53622;0.000;0.000;2023-04-24T04:10:51;22.10;55.70
66708;DHT22;53622;0.000;0.000;2023-04-24T04:13:20;22.10;55.70
66708;DHT22;53622;0.000;0.000;2023-04-24T04:15:51;22.10;55.70
66708;DHT22;53622;0.000;0.000;2023-04-24T04:18:20;22.00;55.70
66708;DHT22;53622;0.000;0.000;2023-04-24T04:20:50;22.00;55.70
66708;DHT22;53622;0.000;0.000;2023-04-24T04:23:19;22.00;55.70
66708;DHT22;53622;0.000;0.000;2023-04-24T04:26:06;22.00;55.70
66708;DHT22;53622;0.000;0.000;2023-04-24T04:29:11;22.00;55.70
66708;DHT22;53622;0.000;0.000;2023-04-24T04:31:45;22.00;55.70
66708;DHT22;53622;0.000;0.000;2023-04-24T04:34:15;22.00;55.80
66708;DHT22;53622;0.000;0.000;2023-04-24T04:36:44;22.00;55.70
66708;DHT22;53622;0.000;0.000;2023-04-24T04:39:46;22.00;55.70
66708;DHT22;53622;0.000;0.000;2023-04-24T04:42:22;22.00;55.70
66708;DHT22;53622;0.000;0.000;2023-04-24T04:44:52;22.00;56.00
66708;DHT22;53622;0.000;0.000;2023-04-24T04:47:29;22.00;56.20
66708;DHT22;53622;0.000;0.000;2023-04-24T04:50:00;22.10;56.40
66708;DHT22;53622;0.000;0.000;2023-04-24T04:52:33;22.10;56.70
66708;DHT22;53622;0.000;0.000;2023-04-24T04:55:15;22.10;57.00
66708;DHT22;53622;0.000;0.000;2023-04-24T04:58:20;22.10;57.20
66708;DHT22;53622;0.000;0.000;2023-04-24T05:00:54;22.10;57.30
66708;DHT22;53622;0.000;0.000;2023-04-24T05:03:31;22.10;57.30
66708;DHT22;53622;0.000;0.000;2023-04-24T05:06:07;22.10;57.40
66708;DHT22;53622;0.000;0.000;2023-04-24T05:08:39;22.10;57.50
66708;DHT22;53622;0.000;0.000;2023-04-24T05:11:14;22.10;57.50
66708;DHT22;53622;0.000;0.000;2023-04-24T05:13:43;22.10;57.40
66708;DHT22;53622;0.000;0.000;2023-04-24T05:16:18;22.10;57.50
66708;DHT22;53622;0.000;0.000;2023-04-24T05:18:50;22.10;57.40
66708;DHT22;53622;0.000;0.000;2023-04-24T05:21:25;22.10;57.50
66708;DHT22;53622;0.000;0.000;2023-04-24T05:23:55;22.10;57.40
66708;DHT22;53622;0.000;0.000;2023-04-24T05:26:41;22.10;57.50
66708;DHT22;53622;0.000;0.000;2023-04-24T05:29:11;22.10;57.20
66708;DHT22;53622;0.000;0.000;2023-04-24T05:31:42;22.00;57.20
66708;DHT22;53622;0.000;0.000;2023-04-24T05:34:13;22.00;57.20
66708;DHT22;53622;0.000;0.000;2023-04-24T05:36:45;22.00;57.50
66708;DHT22;53622;0.000;0.000;2023-04-24T05:39:15;22.00;57.50
66708;DHT22;53622;0.000;0.000;2023-04-24T05:41:44;22.00;57.40
66708;DHT22;53622;0.000;0.000;2023-04-24T05:44:14;22.00;57.30
66708;DHT22;53622;0.000;0.000;2023-04-24T05:46:43;22.00;57.40
66708;DHT22;53622;0.000;0.000;2023-04-24T05:49:14;22.00;57.50
66708;DHT22;53622;0.000;0.000;2023-04-24T05:51:45;22.00;57.30
66708;DHT22;53622;0.000;0.000;2023-04-24T05:54:16;22.00;57.30
66708;DHT22;53622;0.000;0.000;2023-04-24T05:56:46;22.00;57.30
66708;DHT22;53622;0.000;0.000;2023-04-24T05:59:22;22.00;57.30
66708;DHT22;53622;0.000;0.000;2023-04-24T06:01:52;22.00;57.30
66708;DHT22;53622;0.000;0.000;2023-04-24T06:04:24;22.00;57.30
66708;DHT22;53622;0.000;0.000;2023-04-24T06:06:55;22.00;57.30
66708;DHT22;53622;0.000;0.000;2023-04-24T06:09:25;22.00;57.30
66708;DHT22;53622;0.000;0.000;2023-04-24T06:11:54;22.00;57.30
66708;DHT22;53622;0.000;0.000;2023-04-24T06:14:29;22.00;57.30
66708;DHT22;53622;0.000;0.000;2023-04-24T06:17:18;22.00;57.30
66708;DHT22;53622;0.000;0.000;2023-04-24T06:19:50;21.90;57.20
66708;DHT22;53622;0.000;0.000;2023-04-24T06:22:20;21.90;57.80
66708;DHT22;53622;0.000;0.000;2023-04-24T06:24:49;21.90;57.20
66708;DHT22;53622;0.000;0.000;2023-04-24T06:27:19;21.90;57.20
66708;DHT22;53622;0.000;0.000;2023-04-24T06:29:48;21.90;57.20
66708;DHT22;53622;0.000;0.000;2023-04-24T06:32:22;21.90;57.10
66708;DHT22;53622;0.000;0.000;2023-04-24T06:34:54;21.90;57.20
66708;DHT22;53622;0.000;0.000;2023-04-24T06:37:26;21.90;57.20
66708;DHT22;53622;0.000;0.000;2023-04-24T06:39:55;21.90;57.10
66708;DHT22;53622;0.000;0.000;2023-04-24T06:42:24;21.90;57.10
66708;DHT22;53622;0.000;0.000;2023-04-24T06:44:55;21.90;57.10
66708;DHT22;53622;0.000;0.000;2023-04-24T06:47:25;21.90;57.10
66708;DHT22;53622;0.000;0.000;2023-04-24T06:49:56;21.90;57.10
66708;DHT22;53622;0.000;0.000;2023-04-24T06:52:25;21.90;57.10
66708;DHT22;53622;0.000;0.000;2023-04-24T06:55:00;21.90;57.10
66708;DHT22;53622;0.000;0.000;2023-04-24T06:57:30;21.90;57.10
66708;DHT22;53622;0.000;0.000;2023-04-24T07:00:00;21.90;57.00
66708;DHT22;53622;0.000;0.000;2023-04-24T07:02:31;21.90;57.00
66708;DHT22;53622;0.000;0.000;2023-04-24T07:05:02;21.90;57.00
66708;DHT22;53622;0.000;0.000;2023-04-24T07:07:31;21.90;57.00
66708;DHT22;53622;0.000;0.000;2023-04-24T07:10:00;21.90;57.00
66708;DHT22;53622;0.000;0.000;2023-04-24T07:12:31;21.90;57.00
66708;DHT22;53622;0.000;0.000;2023-04-24T07:15:01;21.90;56.90
66708;DHT22;53622;0.000;0.000;2023-04-24T07:17:31;21.90;56.90
66708;DHT22;53622;0.000;0.000;2023-04-24T07:20:01;21.90;56.90
66708;DHT22;53622;0.000;0.000;2023-04-24T07:22:31;21.90;56.90
66708;DHT22;53622;0.000;0.000;2023-04-24T07:25:01;21.90;56.90
66708;DHT22;53622;0.000;0.000;2023-04-24T07:27:30;21.80;56.80
66708;DHT22;53622;0.000;0.000;2023-04-24T07:30:00;21.80;56.80
66708;DHT22;53622;0.000;0.000;2023-04-24T07:32:30;21.80;56.80
66708;DHT22;53622;0.000;0.000;2023-04-24T07:35:00;21.80;56.80
66708;DHT22;53622;0.000;0.000;2023-04-24T07:37:30;21.80;56.80
66708;DHT22;53622;0.000;0.000;2023-04-24T07:39:59;21.80;56.80
66708;DHT22;53622;0.000;0.000;2023-04-24T07:42:29;21.80;56.70
66708;DHT22;53622;0.000;0.000;2023-04-24T07:44:59;21.80;56.70
66708;DHT22;53622;0.000;0.000;2023-04-24T07:47:28;21.80;56.70
66708;DHT22;53622;0.000;0.000;2023-04-24T07:49:58;21.80;56.70
66708;DHT22;53622;0.000;0.000;2023-04-24T07:52:29;21.80;56.70
66708;DHT22;53622;0.000;0.000;2023-04-24T07:54:59;21.80;56.70
66708;DHT22;53622;0.000;0.000;2023-04-24T07:57:30;21.80;56.60
66708;DHT22;53622;0.000;0.000;2023-04-24T07:59:59;21.80;56.60
66708;DHT22;53622;0.000;0.000;2023-04-24T08:02:37;21.80;56.60
66708;DHT22;53622;0.000;0.000;2023-04-24T08:05:08;21.80;56.60
66708;DHT22;53622;0.000;0.000;2023-04-24T08:07:39;21.90;56.50
66708;DHT22;53622;0.000;0.000;2023-04-24T08:10:10;21.90;56.50
66708;DHT22;53622;0.000;0.000;2023-04-24T08:12:40;21.90;56.50
66708;DHT22;53622;0.000;0.000;2023-04-24T08:15:10;21.90;56.40
66708;DHT22;53622;0.000;0.000;2023-04-24T08:17:39;21.90;56.60
66708;DHT22;53622;0.000;0.000;2023-04-24T08:20:10;22.00;56.40
66708;DHT22;53622;0.000;0.000;2023-04-24T08:22:43;21.90;56.40
66708;DHT22;53622;0.000;0.000;2023-04-24T08:25:15;21.90;56.30
66708;DHT22;53622;0.000;0.000;2023-04-24T08:27:45;21.90;56.40
66708;DHT22;53622;0.000;0.000;2023-04-24T08:30:15;21.90;56.60
66708;DHT22;53622;0.000;0.000;2023-04-24T08:32:44;21.90;56.40
66708;DHT22;53622;0.000;0.000;2023-04-24T08:35:13;21.90;56.40
66708;DHT22;53622;0.000;0.000;2023-04-24T08:37:44;21.90;56.30
66708;DHT22;53622;0.000;0.000;2023-04-24T08:40:14;22.00;56.40
66708;DHT22;53622;0.000;0.000;2023-04-24T08:42:45;22.00;56.30
66708;DHT22;53622;0.000;0.000;2023-04-24T08:45:14;22.00;56.30
66708;DHT22;53622;0.000;0.000;2023-04-24T08:47:43;22.00;56.30
66708;DHT22;53622;0.000;0.000;2023-04-24T08:50:13;22.00;56.30
66708;DHT22;53622;0.000;0.000;2023-04-24T08:52:44;22.00;56.20
66708;DHT22;53622;0.000;0.000;2023-04-24T08:55:14;22.00;56.20
66708;DHT22;53622;0.000;0.000;2023-04-24T08:57:45;22.00;56.20
66708;DHT22;53622;0.000;0.000;2023-04-24T09:00:18;22.00;56.20
66708;DHT22;53622;0.000;0.000;2023-04-24T09:02:49;22.00;56.10
66708;DHT22;53622;0.000;0.000;2023-04-24T09:05:21;22.00;56.20
66708;DHT22;53622;0.000;0.000;2023-04-24T09:07:57;22.00;56.10
66708;DHT22;53622;0.000;0.000;2023-04-24T09:10:26;22.00;56.20
66708;DHT22;53622;0.000;0.000;2023-04-24T09:12:59;22.00;56.10
66708;DHT22;53622;0.000;0.000;2023-04-24T09:15:30;22.00;56.20
66708;DHT22;53622;0.000;0.000;2023-04-24T09:17:59;22.00;56.20
66708;DHT22;53622;0.000;0.000;2023-04-24T09:20:29;22.10;56.10
66708;DHT22;53622;0.000;0.000;2023-04-24T09:22:59;22.00;56.10
66708;DHT22;53622;0.000;0.000;2023-04-24T09:25:32;22.10;56.20
66708;DHT22;53622;0.000;0.000;2023-04-24T09:28:03;22.10;56.10
66708;DHT22;53622;0.000;0.000;2023-04-24T09:30:32;22.10;56.20
66708;DHT22;53622;0.000;0.000;2023-04-24T09:33:12;22.00;56.10
66708;DHT22;53622;0.000;0.000;2023-04-24T09:35:41;22.00;56.20
66708;DHT22;53622;0.000;0.000;2023-04-24T09:38:13;22.00;56.10
66708;DHT22;53622;0.000;0.000;2023-04-24T09:40:42;22.00;56.10
66708;DHT22;53622;0.000;0.000;2023-04-24T09:43:12;22.00;56.10
66708;DHT22;53622;0.000;0.000;2023-04-24T09:45:41;22.00;56.10
66708;DHT22;53622;0.000;0.000;2023-04-24T09:48:10;22.00;56.00
66708;DHT22;53622;0.000;0.000;2023-04-24T09:50:46;22.00;56.10
66708;DHT22;53622;0.000;0.000;2023-04-24T09:53:23;22.10;56.00
66708;DHT22;53622;0.000;0.000;2023-04-24T09:55:53;22.10;56.10
66708;DHT22;53622;0.000;0.000;2023-04-24T09:58:26;22.00;55.90
66708;DHT22;53622;0.000;0.000;2023-04-24T10:00:56;22.10;55.90
66708;DHT22;53622;0.000;0.000;2023-04-24T10:03:26;22.10;56.00
66708;DHT22;53622;0.000;0.000;2023-04-24T10:05:59;22.10;55.90
66708;DHT22;53622;0.000;0.000;2023-04-24T10:08:35;22.10;55.90
66708;DHT22;53622;0.000;0.000;2023-04-24T10:11:05;22.10;55.90
66708;DHT22;53622;0.000;0.000;2023-04-24T10:13:35;22.10;55.90
66708;DHT22;53622;0.000;0.000;2023-04-24T10:16:05;22.10;55.90
66708;DHT22;53622;0.000;0.000;2023-04-24T10:18:35;22.10;55.90
66708;DHT22;53622;0.000;0.000;2023-04-24T10:21:05;22.10;55.90
66708;DHT22;53622;0.000;0.000;2023-04-24T10:23:37;22.10;55.90
66708;DHT22;53622;0.000;0.000;2023-04-24T10:26:06;22.10;55.90
66708;DHT22;53622;0.000;0.000;2023-04-24T10:28:38;22.10;55.90
66708;DHT22;53622;0.000;0.000;2023-04-24T10:31:09;22.10;55.80
66708;DHT22;53622;0.000;0.000;2023-04-24T10:33:39;22.10;55.90
66708;DHT22;53622;0.000;0.000;2023-04-24T10:36:10;22.10;55.90
66708;DHT22;53622;0.000;0.000;2023-04-24T10:38:42;22.10;55.90
66708;DHT22;53622;0.000;0.000;2023-04-24T10:41:13;22.10;55.90
66708;DHT22;53622;0.000;0.000;2023-04-24T10:43:44;22.10;55.80
66708;DHT22;53622;0.000;0.000;2023-04-24T10:46:19;22.10;55.80
66708;DHT22;53622;0.000;0.000;2023-04-24T10:48:53;22.10;55.90
66708;DHT22;53622;0.000;0.000;2023-04-24T10:51:23;22.10;55.80
66708;DHT22;53622;0.000;0.000;2023-04-24T10:53:57;22.10;55.70
66708;DHT22;53622;0.000;0.000;2023-04-24T10:56:27;22.10;55.80
66708;DHT22;53622;0.000;0.000;2023-04-24T10:58:56;22.10;55.80
66708;DHT22;53622;0.000;0.000;2023-04-24T11:01:29;22.00;55.70
66708;DHT22;53622;0.000;0.000;2023-04-24T11:04:00;22.10;55.80
66708;DHT22;53622;0.000;0.000;2023-04-24T11:06:30;22.10;55.70
66708;DHT22;53622;0.000;0.000;2023-04-24T11:09:06;22.10;55.80
66708;DHT22;53622;0.000;0.000;2023-04-24T11:11:36;22.10;55.70
66708;DHT22;53622;0.000;0.000;2023-04-24T11:14:08;22.00;55.60
66708;DHT22;53622;0.000;0.000;2023-04-24T11:16:52;22.00;55.60
66708;DHT22;53622;0.000;0.000;2023-04-24T11:19:24;22.10;55.70
66708;DHT22;53622;0.000;0.000;2023-04-24T11:21:59;22.00;55.60
66708;DHT22;53622;0.000;0.000;2023-04-24T11:24:39;22.00;55.60
66708;DHT22;53622;0.000;0.000;2023-04-24T11:27:18;22.00;55.50
66708;DHT22;53622;0.000;0.000;2023-04-24T11:29:49;22.00;55.60
66708;DHT22;53622;0.000;0.000;2023-04-24T11:32:24;22.00;55.50
66708;DHT22;53622;0.000;0.000;2023-04-24T11:34:55;22.00;55.40
66708;DHT22;53622;0.000;0.000;2023-04-24T11:37:27;22.00;55.50
66708;DHT22;53622;0.000;0.000;2023-04-24T11:39:58;22.00;55.50
66708;DHT22;53622;0.000;0.000;2023-04-24T11:42:34;22.00;55.50
66708;DHT22;53622;0.000;0.000;2023-04-24T11:45:07;22.00;55.50
66708;DHT22;53622;0.000;0.000;2023-04-24T11:47:37;22.00;55.50
66708;DHT22;53622;0.000;0.000;2023-04-24T11:50:09;22.10;55.50
66708;DHT22;53622;0.000;0.000;2023-04-24T11:52:40;22.00;55.50
66708;DHT22;53622;0.000;0.000;2023-04-24T11:55:25;22.00;55.50
66708;DHT22;53622;0.000;0.000;2023-04-24T11:57:56;22.00;55.50
66708;DHT22;53622;0.000;0.000;2023-04-24T12:00:27;22.00;55.50
66708;DHT22;53622;0.000;0.000;2023-04-24T12:03:06;22.00;55.40
66708;DHT22;53622;0.000;0.000;2023-04-24T12:05:36;22.00;55.40
66708;DHT22;53622;0.000;0.000;2023-04-24T12:08:06;22.00;55.50
66708;DHT22;53622;0.000;0.000;2023-04-24T12:10:37;22.00;55.40
66708;DHT22;53622;0.000;0.000;2023-04-24T12:13:09;22.00;55.50
66708;DHT22;53622;0.000;0.000;2023-04-24T12:15:40;22.00;55.50
66708;DHT22;53622;0.000;0.000;2023-04-24T12:18:12;22.00;55.40
66708;DHT22;53622;0.000;0.000;2023-04-24T12:20:41;22.00;55.40
66708;DHT22;53622;0.000;0.000;2023-04-24T12:23:10;22.00;55.40
66708;DHT22;53622;0.000;0.000;2023-04-24T12:25:41;22.00;55.40
66708;DHT22;53622;0.000;0.000;2023-04-24T12:28:12;22.00;55.50
66708;DHT22;53622;0.000;0.000;2023-04-24T12:30:43;22.00;55.60
66708;DHT22;53622;0.000;0.000;2023-04-24T12:33:17;22.10;55.50
66708;DHT22;53622;0.000;0.000;2023-04-24T12:35:48;22.10;55.50
66708;DHT22;53622;0.000;0.000;2023-04-24T12:38:22;22.00;55.50
66708;DHT22;53622;0.000;0.000;2023-04-24T12:41:03;22.10;55.50
66708;DHT22;53622;0.000;0.000;2023-04-24T12:43:34;22.10;55.50
66708;DHT22;53622;0.000;0.000;2023-04-24T12:46:03;22.00;55.60
66708;DHT22;53622;0.000;0.000;2023-04-24T12:48:33;22.00;55.40
66708;DHT22;53622;0.000;0.000;2023-04-24T12:51:03;22.00;55.40
66708;DHT22;53622;0.000;0.000;2023-04-24T12:53:33;22.00;55.50
66708;DHT22;53622;0.000;0.000;2023-04-24T12:56:04;22.00;55.40
66708;DHT22;53622;0.000;0.000;2023-04-24T12:58:33;22.00;55.40
66708;DHT22;53622;0.000;0.000;2023-04-24T13:01:03;22.00;55.40
66708;DHT22;53622;0.000;0.000;2023-04-24T13:03:32;22.00;55.40
66708;DHT22;53622;0.000;0.000;2023-04-24T13:06:02;22.00;55.30
66708;DHT22;53622;0.000;0.000;2023-04-24T13:08:31;22.00;55.20
66708;DHT22;53622;0.000;0.000;2023-04-24T13:11:01;22.00;55.30
66708;DHT22;53622;0.000;0.000;2023-04-24T13:13:32;22.00;55.40
66708;DHT22;53622;0.000;0.000;2023-04-24T13:16:01;22.00;55.20
66708;DHT22;53622;0.000;0.000;2023-04-24T13:18:31;22.00;55.20
66708;DHT22;53622;0.000;0.000;2023-04-24T13:21:00;22.00;55.20
66708;DHT22;53622;0.000;0.000;2023-04-24T13:23:30;22.00;55.20
66708;DHT22;53622;0.000;0.000;2023-04-24T13:25:59;22.00;55.20
66708;DHT22;53622;0.000;0.000;2023-04-24T13:28:29;22.00;55.20
66708;DHT22;53622;0.000;0.000;2023-04-24T13:31:00;22.00;55.20
66708;DHT22;53622;0.000;0.000;2023-04-24T13:33:29;22.00;55.10
66708;DHT22;53622;0.000;0.000;2023-04-24T13:35:58;22.00;55.10
66708;DHT22;53622;0.000;0.000;2023-04-24T13:38:27;22.00;55.10
66708;DHT22;53622;0.000;0.000;2023-04-24T13:40:57;22.00;55.10
66708;DHT22;53622;0.000;0.000;2023-04-24T13:43:26;22.00;55.10
66708;DHT22;53622;0.000;0.000;2023-04-24T13:45:56;22.00;55.10
66708;DHT22;53622;0.000;0.000;2023-04-24T13:48:28;22.00;55.10
66708;DHT22;53622;0.000;0.000;2023-04-24T13:50:58;22.00;55.10
66708;DHT22;53622;0.000;0.000;2023-04-24T13:53:27;22.00;55.10
66708;DHT22;53622;0.000;0.000;2023-04-24T13:55:57;22.00;55.10
66708;DHT22;53622;0.000;0.000;2023-04-24T13:58:26;22.00;55.10
66708;DHT22;53622;0.000;0.000;2023-04-24T14:00:56;22.00;55.10
66708;DHT22;53622;0.000;0.000;2023-04-24T14:03:25;22.00;55.10
66708;DHT22;53622;0.000;0.000;2023-04-24T14:05:56;22.00;55.10
66708;DHT22;53622;0.000;0.000;2023-04-24T14:08:26;22.00;55.10
66708;DHT22;53622;0.000;0.000;2023-04-24T14:10:55;22.00;55.00
66708;DHT22;53622;0.000;0.000;2023-04-24T14:13:24;22.00;55.00
66708;DHT22;53622;0.000;0.000;2023-04-24T14:15:54;22.00;55.00
66708;DHT22;53622;0.000;0.000;2023-04-24T14:18:23;22.00;55.00
66708;DHT22;53622;0.000;0.000;2023-04-24T14:20:52;22.00;55.00
66708;DHT22;53622;0.000;0.000;2023-04-24T14:23:23;22.00;55.00
66708;DHT22;53622;0.000;0.000;2023-04-24T14:25:53;22.00;55.00
66708;DHT22;53622;0.000;0.000;2023-04-24T14:28:22;22.00;55.00
66708;DHT22;53622;0.000;0.000;2023-04-24T14:30:52;22.00;55.10
66708;DHT22;53622;0.000;0.000;2023-04-24T14:33:21;22.00;55.00
66708;DHT22;53622;0.000;0.000;2023-04-24T14:35:50;22.00;55.00
66708;DHT22;53622;0.000;0.000;2023-04-24T14:38:20;22.00;55.00
66708;DHT22;53622;0.000;0.000;2023-04-24T14:40:51;22.00;55.10
66708;DHT22;53622;0.000;0.000;2023-04-24T14:43:23;22.00;55.10
66708;DHT22;53622;0.000;0.000;2023-04-24T14:45:52;22.00;55.20
66708;DHT22;53622;0.000;0.000;2023-04-24T14:48:22;22.00;55.20
66708;DHT22;53622;0.000;0.000;2023-04-24T14:50:51;22.00;55.30
66708;DHT22;53622;0.000;0.000;2023-04-24T14:53:21;22.00;55.20
66708;DHT22;53622;0.000;0.000;2023-04-24T14:55:51;22.00;55.10
66708;DHT22;53622;0.000;0.000;2023-04-24T14:58:21;22.00;55.10
66708;DHT22;53622;0.000;0.000;2023-04-24T15:00:50;22.00;55.10
66708;DHT22;53622;0.000;0.000;2023-04-24T15:03:22;22.00;55.10
66708;DHT22;53622;0.000;0.000;2023-04-24T15:05:51;22.00;55.00
66708;DHT22;53622;0.000;0.000;2023-04-24T15:08:21;22.00;55.00
66708;DHT22;53622;0.000;0.000;2023-04-24T15:10:52;22.00;55.00
66708;DHT22;53622;0.000;0.000;2023-04-24T15:13:21;22.10;55.20
66708;DHT22;53622;0.000;0.000;2023-04-24T15:15:50;22.20;56.00
66708;DHT22;53622;0.000;0.000;2023-04-24T15:18:20;22.20;57.80
66708;DHT22;53622;0.000;0.000;2023-04-24T15:20:49;22.30;58.40
66708;DHT22;53622;0.000;0.000;2023-04-24T15:23:19;22.30;58.10
66708;DHT22;53622;0.000;0.000;2023-04-24T15:25:48;22.30;58.00
66708;DHT22;53622;0.000;0.000;2023-04-24T15:28:19;22.40;57.80
66708;DHT22;53622;0.000;0.000;2023-04-24T15:30:49;22.40;57.80
66708;DHT22;53622;0.000;0.000;2023-04-24T15:33:18;22.40;57.80
66708;DHT22;53622;0.000;0.000;2023-04-24T15:35:48;22.40;57.80
66708;DHT22;53622;0.000;0.000;2023-04-24T15:38:18;22.40;57.80
66708;DHT22;53622;0.000;0.000;2023-04-24T15:40:47;22.50;57.70
66708;DHT22;53622;0.000;0.000;2023-04-24T15:43:18;22.50;57.70
66708;DHT22;53622;0.000;0.000;2023-04-24T15:45:49;22.50;57.60
66708;DHT22;53622;0.000;0.000;2023-04-24T15:48:19;22.50;57.60
66708;DHT22;53622;0.000;0.000;2023-04-24T15:50:48;22.50;57.60
66708;DHT22;53622;0.000;0.000;2023-04-24T15:53:18;22.50;57.60
66708;DHT22;53622;0.000;0.000;2023-04-24T15:55:49;22.50;57.60
66708;DHT22;53622;0.000;0.000;2023-04-24T15:58:21;22.50;57.60
66708;DHT22;53622;0.000;0.000;2023-04-24T16:00:51;22.50;58.10
66708;DHT22;53622;0.000;0.000;2023-04-24T16:03:21;22.50;57.50
66708;DHT22;53622;0.000;0.000;2023-04-24T16:05:51;22.50;57.50
66708;DHT22;53622;0.000;0.000;2023-04-24T16:08:21;22.50;57.50
66708;DHT22;53622;0.000;0.000;2023-04-24T16:10:50;22.50;57.40